createdAt,value
2019-04-16T00:01:15.359Z,16.97
2019-04-16T00:03:48.019Z,17.60
2019-04-16T00:06:27.502Z,21.70
2019-04-16T00:09:35.511Z,17.07
2019-04-16T00:12:24.378Z,17.90
2019-04-16T00:14:56.669Z,16.90
2019-04-16T00:17:44.335Z,15.13
2019-04-16T00:20:14.272Z,18.93
2019-04-16T00:22:55.362Z,16.33
2019-04-16T00:25:55.480Z,15.20
2019-04-16T00:28:30.457Z,17.57
2019-04-16T00:31:11.580Z,17.57
2019-04-16T00:33:53.844Z,15.83
2019-04-16T00:36:24.507Z,20.00
2019-04-16T00:38:55.307Z,18.03
2019-04-16T00:41:26.112Z,19.17
2019-04-16T00:43:58.841Z,16.13
2019-04-16T00:46:29.551Z,17.73
2019-04-16T00:49:00.127Z,15.57
2019-04-16T00:51:30.787Z,17.67
2019-04-16T00:54:01.366Z,16.03
2019-04-16T00:56:31.974Z,18.80
2019-04-16T00:59:02.578Z,18.87
2019-04-16T01:01:34.303Z,16.17
2019-04-16T01:04:05.557Z,17.77
2019-04-16T01:06:37.922Z,15.33
2019-04-16T01:09:09.094Z,16.77
2019-04-16T01:11:41.501Z,16.13
2019-04-16T01:14:12.168Z,19.03
2019-04-16T01:16:44.047Z,14.87
2019-04-16T01:19:15.563Z,17.13
2019-04-16T01:21:46.704Z,17.27
2019-04-16T01:24:19.926Z,17.23
2019-04-16T01:26:49.766Z,17.37
2019-04-16T01:29:20.452Z,17.93
2019-04-16T01:32:11.245Z,17.00
2019-04-16T01:34:47.114Z,16.27
2019-04-16T01:37:19.936Z,19.23
2019-04-16T01:39:52.214Z,16.70
2019-04-16T01:42:32.533Z,17.87
2019-04-16T01:45:03.164Z,21.87
2019-04-16T01:47:37.096Z,21.60
2019-04-16T01:50:12.933Z,17.83
2019-04-16T01:52:40.854Z,20.63
2019-04-16T01:55:17.364Z,15.60
2019-04-16T01:57:47.990Z,17.47
2019-04-16T02:00:24.711Z,18.33
2019-04-16T02:03:02.148Z,18.87
2019-04-16T02:05:34.751Z,15.77
2019-04-16T02:08:05.564Z,16.13
2019-04-16T02:10:38.477Z,17.80
2019-04-16T02:13:08.826Z,19.80
2019-04-16T02:15:39.456Z,19.57
2019-04-16T02:18:16.186Z,17.90
2019-04-16T02:20:46.785Z,17.67
2019-04-16T02:23:17.539Z,18.50
2019-04-16T02:25:51.331Z,19.90
2019-04-16T02:28:22.045Z,20.00
2019-04-16T02:30:54.725Z,20.80
2019-04-16T02:33:25.312Z,20.17
2019-04-16T02:35:56.044Z,19.57
2019-04-16T02:38:26.718Z,18.03
2019-04-16T02:40:57.422Z,17.23
2019-04-16T02:43:28.074Z,18.97
2019-04-16T02:45:58.942Z,18.67
2019-04-16T02:48:35.457Z,19.73
2019-04-16T02:51:08.619Z,19.80
2019-04-16T02:53:58.557Z,18.17
2019-04-16T02:56:37.155Z,20.10
2019-04-16T02:59:25.559Z,18.87
2019-04-16T03:02:27.816Z,21.57
2019-04-16T03:05:06.103Z,19.50
2019-04-16T03:07:37.999Z,19.70
2019-04-16T03:10:12.063Z,19.00
2019-04-16T03:12:41.195Z,20.93
2019-04-16T03:15:11.897Z,22.03
2019-04-16T03:17:44.172Z,20.47
2019-04-16T03:20:20.735Z,18.97
2019-04-16T03:22:51.963Z,17.73
2019-04-16T03:25:22.569Z,20.43
2019-04-16T03:27:55.114Z,16.13
2019-04-16T03:30:25.651Z,20.53
2019-04-16T03:32:56.356Z,18.67
2019-04-16T03:35:26.983Z,20.30
2019-04-16T03:37:57.637Z,19.47
2019-04-16T03:40:29.236Z,17.33
2019-04-16T03:43:03.955Z,16.97
2019-04-16T03:45:45.349Z,20.20
2019-04-16T03:48:20.657Z,18.03
2019-04-16T03:50:51.352Z,19.80
2019-04-16T03:53:22.069Z,18.77
2019-04-16T03:55:54.563Z,19.03
2019-04-16T03:58:30.415Z,19.60
2019-04-16T04:01:02.146Z,20.37
2019-04-16T04:03:34.934Z,22.53
2019-04-16T04:06:11.123Z,21.97
2019-04-16T04:08:41.835Z,20.00
2019-04-16T04:11:12.653Z,20.50
2019-04-16T04:13:43.307Z,20.20
2019-04-16T04:16:13.899Z,19.30
2019-04-16T04:18:45.509Z,21.67
2019-04-16T04:21:25.421Z,20.67
2019-04-16T04:24:08.583Z,21.03
2019-04-16T04:26:42.489Z,19.80
2019-04-16T04:29:13.209Z,19.40
2019-04-16T04:31:43.847Z,18.47
2019-04-16T04:34:16.971Z,20.10
2019-04-16T04:36:49.094Z,18.60
2019-04-16T04:39:21.820Z,22.77
2019-04-16T04:41:56.384Z,19.17
2019-04-16T04:44:26.824Z,22.13
2019-04-16T04:46:57.462Z,21.87
2019-04-16T04:49:30.356Z,23.77
2019-04-16T04:52:00.834Z,19.90
2019-04-16T04:54:37.393Z,23.20
2019-04-16T04:57:08.066Z,19.40
2019-04-16T04:59:38.735Z,21.43
2019-04-16T05:02:10.586Z,20.70
2019-04-16T05:05:01.651Z,20.57
2019-04-16T05:07:34.541Z,21.57
2019-04-16T05:10:10.034Z,22.70
2019-04-16T05:12:54.173Z,19.67
2019-04-16T05:15:30.175Z,21.70
2019-04-16T05:18:00.938Z,21.43
2019-04-16T05:20:41.430Z,20.20
2019-04-16T05:23:12.547Z,21.33
2019-04-16T05:25:48.109Z,23.47
2019-04-16T05:28:32.760Z,22.97
2019-04-16T05:31:12.976Z,21.20
2019-04-16T05:33:58.705Z,23.30
2019-04-16T05:36:27.544Z,24.60
2019-04-16T05:38:58.733Z,20.60
2019-04-16T05:41:31.469Z,22.40
2019-04-16T05:44:02.232Z,20.03
2019-04-16T05:46:34.530Z,21.93
2019-04-16T05:49:05.682Z,22.83
2019-04-16T05:51:36.834Z,18.77
2019-04-16T05:54:13.274Z,18.50
2019-04-16T05:56:49.223Z,22.13
2019-04-16T05:59:19.972Z,22.20
2019-04-16T06:01:57.198Z,23.17
2019-04-16T06:04:28.696Z,23.37
2019-04-16T06:07:02.874Z,21.77
2019-04-16T06:09:33.025Z,27.57
2019-04-16T06:12:09.505Z,23.53
2019-04-16T06:14:53.844Z,22.13
2019-04-16T06:17:41.000Z,20.80
2019-04-16T06:20:22.964Z,19.87
2019-04-16T06:23:00.867Z,22.97
2019-04-16T06:25:41.012Z,23.03
2019-04-16T06:28:10.856Z,19.10
2019-04-16T06:30:44.258Z,20.77
2019-04-16T06:33:19.734Z,22.20
2019-04-16T06:35:59.153Z,22.33
2019-04-16T06:38:31.399Z,26.33
2019-04-16T06:41:06.568Z,24.77
2019-04-16T06:43:48.748Z,25.30
2019-04-16T06:46:21.131Z,21.67
2019-04-16T06:49:09.728Z,22.70
2019-04-16T06:51:45.020Z,23.80
2019-04-16T06:54:39.697Z,22.40
2019-04-16T06:57:14.361Z,21.30
2019-04-16T07:00:02.461Z,19.53
2019-04-16T07:03:03.131Z,22.13
2019-04-16T07:05:50.415Z,22.90
2019-04-16T07:08:37.403Z,19.70
2019-04-16T07:11:03.704Z,21.70
2019-04-16T07:13:45.654Z,29.97
2019-04-16T07:16:16.420Z,23.40
2019-04-16T07:18:54.363Z,21.70
2019-04-16T07:21:25.468Z,21.13
2019-04-16T07:23:58.228Z,21.83
2019-04-16T07:26:46.462Z,22.37
2019-04-16T07:29:31.577Z,25.00
2019-04-16T07:32:23.518Z,25.73
2019-04-16T07:34:56.290Z,22.53
2019-04-16T07:37:46.744Z,22.97
2019-04-16T07:40:35.687Z,19.50
2019-04-16T07:43:09.128Z,25.17
2019-04-16T07:45:44.167Z,20.20
2019-04-16T07:48:27.512Z,21.03
2019-04-16T07:51:05.633Z,22.10
2019-04-16T07:53:53.313Z,18.30
2019-04-16T07:56:27.146Z,20.03
2019-04-16T07:59:01.297Z,23.97
2019-04-16T08:01:31.305Z,22.93
2019-04-16T08:04:04.052Z,20.90
2019-04-16T08:06:38.970Z,26.97
2019-04-16T08:09:21.012Z,20.10
2019-04-16T08:11:52.853Z,19.23
2019-04-16T08:14:36.980Z,23.63
2019-04-16T08:17:09.694Z,18.93
2019-04-16T08:19:44.672Z,23.33
2019-04-16T08:22:16.722Z,20.50
2019-04-16T08:25:03.313Z,21.67
2019-04-16T08:27:38.135Z,20.73
2019-04-16T08:30:12.564Z,23.43
2019-04-16T08:32:45.850Z,19.80
2019-04-16T08:35:15.745Z,21.67
2019-04-16T08:37:49.178Z,20.83
2019-04-16T08:40:18.980Z,18.70
2019-04-16T08:42:49.597Z,20.97
2019-04-16T08:45:26.362Z,19.77
2019-04-16T08:47:59.110Z,24.07
2019-04-16T08:50:31.113Z,21.30
2019-04-16T08:53:04.635Z,20.77
2019-04-16T08:55:40.364Z,26.50
2019-04-16T08:58:12.967Z,23.27
2019-04-16T09:00:52.448Z,23.10
2019-04-16T09:03:23.418Z,22.43
2019-04-16T09:05:54.161Z,24.00
2019-04-16T09:08:36.706Z,21.33
2019-04-16T09:11:21.848Z,19.60
2019-04-16T09:13:48.043Z,20.43
2019-04-16T09:16:18.804Z,23.23
2019-04-16T09:18:54.237Z,24.93
2019-04-16T09:21:27.815Z,23.60
2019-04-16T09:24:15.515Z,25.43
2019-04-16T09:26:47.817Z,20.20
2019-04-16T09:29:52.851Z,22.47
2019-04-16T09:32:47.194Z,24.13
2019-04-16T09:35:37.400Z,18.63
2019-04-16T09:38:26.481Z,28.63
2019-04-16T09:41:13.711Z,26.10
2019-04-16T09:44:01.033Z,24.37
2019-04-16T09:46:50.325Z,21.97
2019-04-16T09:49:06.178Z,27.67
2019-04-16T09:51:37.281Z,22.43
2019-04-16T09:54:19.478Z,25.03
2019-04-16T09:56:59.751Z,26.97
2019-04-16T09:59:40.424Z,24.73
2019-04-16T10:02:20.124Z,21.63
2019-04-16T10:04:54.068Z,25.17
2019-04-16T10:07:26.057Z,25.30
2019-04-16T10:09:59.124Z,26.13
2019-04-16T10:12:36.207Z,28.23
2019-04-16T10:15:07.712Z,25.03
2019-04-16T10:17:38.312Z,22.77
2019-04-16T10:20:10.323Z,23.70
2019-04-16T10:22:41.071Z,21.43
2019-04-16T10:25:15.106Z,24.30
2019-04-16T10:27:47.536Z,24.83
2019-04-16T10:30:23.674Z,22.13
2019-04-16T10:32:55.325Z,25.37
2019-04-16T10:35:32.049Z,21.83
2019-04-16T10:38:04.638Z,25.10
2019-04-16T10:40:42.821Z,25.53
2019-04-16T10:43:24.409Z,21.57
2019-04-16T10:45:57.848Z,23.93
2019-04-16T10:48:50.796Z,26.20
2019-04-16T10:51:23.150Z,24.47
2019-04-16T10:53:58.554Z,21.30
2019-04-16T10:56:48.222Z,25.07
2019-04-16T10:59:50.991Z,22.47
2019-04-16T11:02:40.138Z,20.53
2019-04-16T11:05:19.271Z,26.07
2019-04-16T11:07:55.391Z,23.20
2019-04-16T11:10:27.603Z,21.10
2019-04-16T11:12:59.078Z,21.63
2019-04-16T11:15:30.681Z,21.50
2019-04-16T11:18:19.568Z,21.73
2019-04-16T11:20:50.315Z,26.23
2019-04-16T11:23:21.190Z,26.47
2019-04-16T11:25:52.189Z,25.63
2019-04-16T11:28:22.966Z,19.10
2019-04-16T11:31:04.899Z,22.27
2019-04-16T11:33:52.555Z,22.30
2019-04-16T11:36:30.994Z,18.83
2019-04-16T11:39:01.753Z,18.43
2019-04-16T11:41:33.978Z,17.37
2019-04-16T11:44:23.275Z,21.57
2019-04-16T11:46:53.896Z,17.83
2019-04-16T11:49:30.479Z,16.63
2019-04-16T11:52:11.116Z,18.43
2019-04-16T11:54:46.843Z,16.90
2019-04-16T11:57:15.616Z,18.77
2019-04-16T12:00:07.468Z,15.17
2019-04-16T12:02:40.872Z,16.40
2019-04-16T12:05:14.917Z,17.10
2019-04-16T12:07:50.370Z,17.70
2019-04-16T12:10:40.747Z,14.57
2019-04-16T12:13:31.925Z,15.00
2019-04-16T12:16:14.046Z,17.40
2019-04-16T12:19:03.582Z,14.13
2019-04-16T12:21:39.730Z,17.37
2019-04-16T12:24:29.929Z,18.00
2019-04-16T12:27:18.772Z,16.67
2019-04-16T12:30:09.441Z,13.50
2019-04-16T12:32:59.770Z,14.27
2019-04-16T12:35:37.830Z,17.63
2019-04-16T12:38:13.118Z,15.17
2019-04-16T12:40:44.328Z,13.10
2019-04-16T12:43:16.752Z,15.07
2019-04-16T12:46:14.782Z,13.67
2019-04-16T12:48:47.047Z,11.50
2019-04-16T12:51:31.024Z,16.97
2019-04-16T12:54:29.899Z,13.00
2019-04-16T12:57:21.692Z,15.50
2019-04-16T13:00:15.082Z,14.17
2019-04-16T13:02:58.944Z,13.63
2019-04-16T13:05:50.892Z,12.93
2019-04-16T13:08:30.258Z,10.63
2019-04-16T13:11:13.391Z,12.70
2019-04-16T13:13:49.964Z,12.53
2019-04-16T13:16:35.743Z,12.60
2019-04-16T13:19:08.660Z,12.77
2019-04-16T13:21:50.321Z,12.97
2019-04-16T13:24:22.860Z,14.53
2019-04-16T13:26:55.300Z,11.60
2019-04-16T13:29:29.465Z,11.23
2019-04-16T13:32:00.460Z,11.37
2019-04-16T13:34:33.333Z,9.97
2019-04-16T13:37:05.285Z,11.17
2019-04-16T13:39:50.026Z,13.33
2019-04-16T13:42:22.939Z,11.10
2019-04-16T13:45:15.146Z,9.53
2019-04-16T13:47:36.194Z,9.87
2019-04-16T13:50:11.361Z,10.83
2019-04-16T13:52:59.510Z,11.10
2019-04-16T13:55:38.242Z,10.87
2019-04-16T13:58:22.559Z,10.53
2019-04-16T14:00:55.054Z,9.50
2019-04-16T14:03:25.852Z,9.23
2019-04-16T14:05:56.772Z,11.03
2019-04-16T14:08:27.630Z,12.40
2019-04-16T14:10:59.115Z,12.47
2019-04-16T14:13:30.319Z,13.27
2019-04-16T14:16:11.713Z,11.03
2019-04-16T14:18:50.431Z,10.40
2019-04-16T14:21:22.313Z,15.20
2019-04-16T14:23:54.197Z,13.63
2019-04-16T14:26:24.964Z,16.80
2019-04-16T14:28:57.027Z,11.93
2019-04-16T14:31:27.760Z,18.07
2019-04-16T14:34:00.313Z,11.93
2019-04-16T14:36:32.311Z,11.83
2019-04-16T14:39:13.311Z,13.80
2019-04-16T14:41:49.931Z,14.27
2019-04-16T14:44:21.095Z,15.80
2019-04-16T14:46:52.284Z,14.87
2019-04-16T14:49:24.324Z,14.57
2019-04-16T14:51:58.008Z,12.80
2019-04-16T14:54:32.487Z,11.93
2019-04-16T14:57:10.170Z,13.67
2019-04-16T14:59:56.207Z,14.40
2019-04-16T15:02:41.668Z,14.63
2019-04-16T15:05:15.748Z,18.37
2019-04-16T15:07:48.096Z,18.17
2019-04-16T15:10:40.980Z,16.87
2019-04-16T15:13:25.688Z,18.13
2019-04-16T15:16:08.728Z,17.20
2019-04-16T15:18:36.144Z,17.53
2019-04-16T15:21:24.298Z,16.37
2019-04-16T15:24:07.106Z,16.90
2019-04-16T15:26:45.421Z,17.40
2019-04-16T15:29:20.816Z,18.30
2019-04-16T15:32:10.357Z,17.43
2019-04-16T15:34:43.998Z,20.07
2019-04-16T15:37:22.815Z,21.93
2019-04-16T15:39:59.285Z,18.83
2019-04-16T15:42:48.479Z,16.83
2019-04-16T15:45:25.501Z,20.33
2019-04-16T15:48:21.392Z,21.73
2019-04-16T15:50:59.851Z,16.80
2019-04-16T15:53:47.722Z,13.30
2019-04-16T15:56:23.862Z,15.80
2019-04-16T15:59:03.067Z,13.00
2019-04-16T16:01:51.929Z,11.37
2019-04-16T16:04:24.431Z,13.33
2019-04-16T16:06:58.928Z,11.33
2019-04-16T16:09:31.372Z,11.77
2019-04-16T16:12:09.879Z,13.30
2019-04-16T16:14:39.295Z,10.67
2019-04-16T16:17:13.575Z,12.83
2019-04-16T16:19:48.097Z,11.10
2019-04-16T16:22:20.320Z,11.33
2019-04-16T16:24:52.103Z,11.23
2019-04-16T16:27:25.043Z,12.00
2019-04-16T16:29:56.825Z,13.90
2019-04-16T16:32:27.588Z,14.53
2019-04-16T16:34:59.553Z,15.17
2019-04-16T16:37:30.355Z,13.23
2019-04-16T16:40:01.120Z,11.87
2019-04-16T16:42:34.257Z,12.97
2019-04-16T16:45:05.429Z,13.80
2019-04-16T16:47:39.846Z,11.40
2019-04-16T16:50:13.324Z,10.93
2019-04-16T16:52:53.513Z,13.00
2019-04-16T16:55:38.726Z,15.70
2019-04-16T16:58:25.460Z,11.17
2019-04-16T17:01:00.012Z,13.40
2019-04-16T17:03:44.105Z,11.23
2019-04-16T17:06:16.817Z,11.50
2019-04-16T17:08:50.433Z,12.67
2019-04-16T17:11:21.534Z,14.80
2019-04-16T17:13:58.014Z,8.37
2019-04-16T17:16:35.304Z,12.70
2019-04-16T17:19:07.027Z,11.03
2019-04-16T17:21:37.672Z,10.93
2019-04-16T17:24:09.378Z,12.53
2019-04-16T17:26:40.125Z,11.30
2019-04-16T17:29:10.818Z,10.10
2019-04-16T17:31:42.518Z,8.70
2019-04-16T17:34:19.472Z,10.70
2019-04-16T17:36:50.293Z,10.10
2019-04-16T17:39:42.277Z,7.30
2019-04-16T17:42:15.334Z,8.10
2019-04-16T17:45:00.190Z,8.43
2019-04-16T17:47:50.814Z,10.93
2019-04-16T17:50:30.341Z,6.17
2019-04-16T17:53:18.125Z,9.50
2019-04-16T17:55:57.596Z,6.20
2019-04-16T17:58:36.503Z,6.87
2019-04-16T18:01:25.379Z,7.17
2019-04-16T18:03:59.863Z,4.97
2019-04-16T18:06:35.628Z,4.93
2019-04-16T18:09:18.050Z,8.60
2019-04-16T18:12:12.030Z,5.27
2019-04-16T18:14:59.235Z,6.73
2019-04-16T18:17:47.723Z,4.30
2019-04-16T18:20:25.167Z,5.87
2019-04-16T18:23:03.454Z,6.87
2019-04-16T18:25:57.835Z,5.80
2019-04-16T18:28:39.022Z,5.13
2019-04-16T18:31:31.535Z,5.53
2019-04-16T18:34:24.734Z,5.10
2019-04-16T18:37:04.046Z,4.20
2019-04-16T18:39:41.760Z,4.77
2019-04-16T18:42:31.874Z,5.70
2019-04-16T18:45:08.332Z,4.00
2019-04-16T18:48:01.062Z,4.07
2019-04-16T18:50:27.911Z,5.10
2019-04-16T18:53:02.698Z,5.93
2019-04-16T18:55:36.820Z,7.40
2019-04-16T18:58:11.102Z,4.47
2019-04-16T19:00:48.767Z,4.90
2019-04-16T19:03:21.567Z,2.90
2019-04-16T19:05:55.026Z,4.03
2019-04-16T19:08:40.800Z,3.33
2019-04-16T19:11:03.043Z,3.43
2019-04-16T19:13:36.892Z,4.77
2019-04-16T19:16:08.618Z,3.80
2019-04-16T19:18:42.489Z,4.00
2019-04-16T19:21:19.254Z,6.37
2019-04-16T19:23:55.936Z,4.10
2019-04-16T19:26:31.600Z,5.27
2019-04-16T19:29:05.906Z,2.63
2019-04-16T19:31:39.555Z,4.27
2019-04-16T19:34:12.872Z,6.43
2019-04-16T19:36:46.668Z,3.00
2019-04-16T19:39:21.222Z,7.63
2019-04-16T19:41:57.252Z,3.20
2019-04-16T19:44:28.685Z,4.47
2019-04-16T19:47:02.190Z,3.87
2019-04-16T19:49:40.230Z,2.67
2019-04-16T19:52:14.312Z,2.70
2019-04-16T19:54:49.695Z,2.57
2019-04-16T19:57:24.192Z,4.50
2019-04-16T20:00:01.345Z,2.83
2019-04-16T20:02:36.776Z,2.83
2019-04-16T20:05:10.834Z,3.47
2019-04-16T20:07:44.915Z,2.10
2019-04-16T20:10:18.232Z,4.40
2019-04-16T20:12:52.014Z,3.13
2019-04-16T20:15:35.528Z,3.80
2019-04-16T20:18:07.334Z,3.00
2019-04-16T20:20:38.859Z,6.70
2019-04-16T20:23:10.136Z,3.43
2019-04-16T20:25:41.703Z,3.77
2019-04-16T20:28:15.661Z,5.77
2019-04-16T20:30:48.346Z,5.90
2019-04-16T20:33:19.591Z,4.03
2019-04-16T20:35:54.558Z,3.67
2019-04-16T20:38:29.375Z,5.37
2019-04-16T20:41:01.848Z,3.87
2019-04-16T20:43:36.688Z,4.30
2019-04-16T20:46:09.922Z,3.77
2019-04-16T20:48:45.041Z,3.47
2019-04-16T20:51:15.701Z,3.50
2019-04-16T20:53:46.688Z,4.93
2019-04-16T20:56:20.474Z,2.57
2019-04-16T20:58:53.221Z,4.83
2019-04-16T21:01:33.829Z,3.53
2019-04-16T21:04:04.676Z,3.80
2019-04-16T21:06:31.585Z,3.47
2019-04-16T21:09:06.351Z,7.40
2019-04-16T21:11:41.163Z,3.87
2019-04-16T21:14:13.283Z,5.40
2019-04-16T21:16:44.017Z,4.13
2019-04-16T21:19:22.813Z,4.53
2019-04-16T21:21:47.535Z,6.17
2019-04-16T21:24:18.435Z,6.53
2019-04-16T21:26:51.252Z,4.93
2019-04-16T21:29:26.230Z,4.23
2019-04-16T21:32:04.352Z,4.37
2019-04-16T21:34:42.582Z,4.90
2019-04-16T21:37:31.603Z,4.80
2019-04-16T21:40:05.360Z,5.33
2019-04-16T21:42:42.202Z,5.53
2019-04-16T21:45:13.721Z,4.20
2019-04-16T21:47:45.278Z,3.17
2019-04-16T21:50:17.081Z,3.90
2019-04-16T21:52:47.828Z,5.97
2019-04-16T21:55:18.548Z,3.90
2019-04-16T21:57:49.291Z,3.27
2019-04-16T22:00:38.112Z,3.77
2019-04-16T22:03:15.974Z,3.73
2019-04-16T22:05:48.346Z,4.87
2019-04-16T22:08:19.266Z,3.83
2019-04-16T22:10:51.859Z,5.90
2019-04-16T22:13:23.545Z,3.93
2019-04-16T22:15:57.261Z,3.30
2019-04-16T22:18:28.680Z,6.43
2019-04-16T22:20:59.686Z,5.30
2019-04-16T22:23:37.033Z,3.23
2019-04-16T22:26:10.566Z,3.63
2019-04-16T22:28:44.149Z,5.17
2019-04-16T22:31:13.754Z,4.27
2019-04-16T22:33:44.440Z,4.50
2019-04-16T22:36:16.310Z,4.57
2019-04-16T22:38:48.536Z,7.37
2019-04-16T22:41:23.537Z,6.23
2019-04-16T22:43:54.935Z,4.27
2019-04-16T22:46:27.239Z,3.17
2019-04-16T22:49:00.413Z,6.37
2019-04-16T22:51:31.145Z,4.23
2019-04-16T22:54:21.635Z,3.87
2019-04-16T22:56:53.984Z,4.23
2019-04-16T22:59:24.615Z,4.10
2019-04-16T23:01:55.585Z,3.80
2019-04-16T23:04:32.210Z,4.27
2019-04-16T23:07:07.064Z,4.73
2019-04-16T23:09:37.334Z,4.50
2019-04-16T23:12:12.734Z,3.70
2019-04-16T23:14:44.391Z,6.00
2019-04-16T23:17:16.010Z,4.00
2019-04-16T23:19:46.795Z,3.67
2019-04-16T23:22:17.454Z,4.13
2019-04-16T23:24:48.273Z,5.20
2019-04-16T23:27:19.433Z,4.27
2019-04-16T23:29:55.741Z,4.13
2019-04-16T23:32:28.592Z,4.43
2019-04-16T23:34:59.297Z,5.73
2019-04-16T23:37:30.116Z,4.47
2019-04-16T23:40:00.880Z,4.67
2019-04-16T23:42:33.624Z,5.33
2019-04-16T23:45:31.163Z,5.80
2019-04-16T23:48:20.710Z,3.50
2019-04-16T23:50:53.015Z,5.33
2019-04-16T23:53:41.567Z,7.63
2019-04-16T23:56:20.830Z,5.33
2019-04-16T23:59:01.231Z,7.03
